sensor_id;sensor_type;location;lat;lon;timestamp;pressure;altitude;pressure_sealevel;temperature;humidity
16194;BME280;8204;53.582;10.080;2023-02-15T00:01:13;101991.41;;;8.03;100.00
16194;BME280;8204;53.582;10.080;2023-02-15T00:03:42;101990.69;;;8.01;100.00
16194;BME280;8204;53.582;10.080;2023-02-15T00:06:11;101986.31;;;8.01;100.00
16194;BME280;8204;53.582;10.080;2023-02-15T00:08:40;101982.84;;;8.01;100.00
16194;BME280;8204;53.582;10.080;2023-02-15T00:11:14;101973.34;;;8.00;100.00
16194;BME280;8204;53.582;10.080;2023-02-15T00:14:04;101967.31;;;7.99;100.00
16194;BME280;8204;53.582;10.080;2023-02-15T00:16:33;101956.88;;;7.99;100.00
16194;BME280;8204;53.582;10.080;2023-02-15T00:19:03;101944.53;;;8.01;100.00
16194;BME280;8204;53.582;10.080;2023-02-15T00:21:33;101928.88;;;8.01;100.00
16194;BME280;8204;53.582;10.080;2023-02-15T00:24:05;101940.16;;;8.02;100.00
16194;BME280;8204;53.582;10.080;2023-02-15T00:26:37;101924.59;;;8.00;100.00
16194;BME280;8204;53.582;10.080;2023-02-15T00:29:07;101925.88;;;7.95;100.00
16194;BME280;8204;53.582;10.080;2023-02-15T00:31:36;101922.47;;;7.95;100.00
16194;BME280;8204;53.582;10.080;2023-02-15T00:34:11;101908.44;;;7.95;100.00
16194;BME280;8204;53.582;10.080;2023-02-15T00:36:40;101905.94;;;7.94;100.00
16194;BME280;8204;53.582;10.080;2023-02-15T00:39:09;101898.25;;;7.93;100.00
16194;BME280;8204;53.582;10.080;2023-02-15T00:41:41;101895.84;;;7.90;100.00
16194;BME280;8204;53.582;10.080;2023-02-15T00:44:10;101872.88;;;7.95;100.00
16194;BME280;8204;53.582;10.080;2023-02-15T00:46:39;101867.66;;;7.95;100.00
16194;BME280;8204;53.582;10.080;2023-02-15T00:49:08;101871.09;;;7.95;100.00
16194;BME280;8204;53.582;10.080;2023-02-15T00:51:37;101871.09;;;7.95;100.00
16194;BME280;8204;53.582;10.080;2023-02-15T00:54:06;101865.84;;;7.95;100.00
16194;BME280;8204;53.582;10.080;2023-02-15T00:56:35;101855.31;;;7.96;100.00
16194;BME280;8204;53.582;10.080;2023-02-15T00:59:08;101868.34;;;7.96;100.00
16194;BME280;8204;53.582;10.080;2023-02-15T01:01:36;101848.31;;;7.97;100.00
16194;BME280;8204;53.582;10.080;2023-02-15T01:04:05;101852.69;;;7.96;100.00
16194;BME280;8204;53.582;10.080;2023-02-15T01:06:35;101862.91;;;7.99;100.00
16194;BME280;8204;53.582;10.080;2023-02-15T01:09:05;101861.38;;;7.97;100.00
16194;BME280;8204;53.582;10.080;2023-02-15T01:11:34;101861.25;;;7.98;100.00
16194;BME280;8204;53.582;10.080;2023-02-15T01:14:05;101850.00;;;7.98;100.00
16194;BME280;8204;53.582;10.080;2023-02-15T01:16:35;101862.78;;;8.01;100.00
16194;BME280;8204;53.582;10.080;2023-02-15T01:19:04;101850.09;;;7.96;100.00
16194;BME280;8204;53.582;10.080;2023-02-15T01:21:33;101854.59;;;7.95;100.00
16194;BME280;8204;53.582;10.080;2023-02-15T01:24:03;101844.16;;;7.95;100.00
16194;BME280;8204;53.582;10.080;2023-02-15T01:26:32;101821.63;;;7.94;100.00
16194;BME280;8204;53.582;10.080;2023-02-15T01:29:01;101821.75;;;7.92;100.00
16194;BME280;8204;53.582;10.080;2023-02-15T01:31:33;101802.63;;;7.92;100.00
16194;BME280;8204;53.582;10.080;2023-02-15T01:34:02;101798.25;;;7.92;100.00
16194;BME280;8204;53.582;10.080;2023-02-15T01:36:33;101792.19;;;7.92;100.00
16194;BME280;8204;53.582;10.080;2023-02-15T01:39:03;101786.97;;;7.92;100.00
16194;BME280;8204;53.582;10.080;2023-02-15T01:41:33;101768.59;;;7.93;100.00
16194;BME280;8204;53.582;10.080;2023-02-15T01:44:03;101765.03;;;7.94;100.00
16194;BME280;8204;53.582;10.080;2023-02-15T01:46:38;101779.03;;;7.93;100.00
16194;BME280;8204;53.582;10.080;2023-02-15T01:49:11;101776.31;;;7.95;100.00
16194;BME280;8204;53.582;10.080;2023-02-15T01:51:43;101786.63;;;7.96;100.00
16194;BME280;8204;53.582;10.080;2023-02-15T01:54:19;101784.25;;;7.93;100.00
16194;BME280;8204;53.582;10.080;2023-02-15T01:56:50;101799.06;;;7.93;100.00
16194;BME280;8204;53.582;10.080;2023-02-15T01:59:21;101790.44;;;7.92;100.00
16194;BME280;8204;53.582;10.080;2023-02-15T02:01:57;101782.59;;;7.92;100.00
16194;BME280;8204;53.582;10.080;2023-02-15T02:04:32;101794.00;;;7.91;100.00
16194;BME280;8204;53.582;10.080;2023-02-15T02:07:04;101778.53;;;7.88;100.00
16194;BME280;8204;53.582;10.080;2023-02-15T02:09:35;101778.88;;;7.84;100.00
16194;BME280;8204;53.582;10.080;2023-02-15T02:12:06;101767.75;;;7.82;100.00
16194;BME280;8204;53.582;10.080;2023-02-15T02:14:37;101746.63;;;7.85;100.00
16194;BME280;8204;53.582;10.080;2023-02-15T02:17:12;101757.19;;;7.83;100.00
16194;BME280;8204;53.582;10.080;2023-02-15T02:19:59;101741.19;;;7.88;100.00
16194;BME280;8204;53.582;10.080;2023-02-15T02:32:00;101736.66;;;7.79;100.00
16194;BME280;8204;53.582;10.080;2023-02-15T02:34:44;101714.00;;;7.79;100.00
16194;BME280;8204;53.582;10.080;2023-02-15T02:37:19;101713.19;;;7.79;100.00
16194;BME280;8204;53.582;10.080;2023-02-15T02:39:56;101701.09;;;7.78;100.00
16194;BME280;8204;53.582;10.080;2023-02-15T02:42:36;101702.03;;;7.77;100.00
16194;BME280;8204;53.582;10.080;2023-02-15T02:45:09;101704.91;;;7.74;100.00
16194;BME280;8204;53.582;10.080;2023-02-15T02:47:46;101706.06;;;7.70;100.00
16194;BME280;8204;53.582;10.080;2023-02-15T02:50:22;101709.38;;;7.72;100.00
16194;BME280;8204;53.582;10.080;2023-02-15T02:52:54;101714.72;;;7.70;100.00
16194;BME280;8204;53.582;10.080;2023-02-15T02:55:26;101722.78;;;7.67;100.00
16194;BME280;8204;53.582;10.080;2023-02-15T02:58:00;101725.50;;;7.66;100.00
16194;BME280;8204;53.582;10.080;2023-02-15T03:00:35;101714.25;;;7.65;100.00
16194;BME280;8204;53.582;10.080;2023-02-15T03:03:10;101736.88;;;7.65;100.00
16194;BME280;8204;53.582;10.080;2023-02-15T03:05:46;101721.47;;;7.62;100.00
16194;BME280;8204;53.582;10.080;2023-02-15T03:08:20;101720.63;;;7.61;100.00
16194;BME280;8204;53.582;10.080;2023-02-15T03:10:56;101714.81;;;7.58;100.00
16194;BME280;8204;53.582;10.080;2023-02-15T03:13:27;101717.44;;;7.58;100.00
16194;BME280;8204;53.582;10.080;2023-02-15T03:15:58;101715.06;;;7.55;100.00
16194;BME280;8204;53.582;10.080;2023-02-15T03:18:43;101709.84;;;7.55;100.00
16194;BME280;8204;53.582;10.080;2023-02-15T03:21:26;101709.94;;;7.53;100.00
16194;BME280;8204;53.582;10.080;2023-02-15T03:24:00;101710.06;;;7.52;100.00
16194;BME280;8204;53.582;10.080;2023-02-15T03:26:32;101715.28;;;7.52;100.00
16194;BME280;8204;53.582;10.080;2023-02-15T03:29:03;101710.06;;;7.52;100.00
16194;BME280;8204;53.582;10.080;2023-02-15T03:31:38;101718.97;;;7.49;100.00
16194;BME280;8204;53.582;10.080;2023-02-15T03:34:10;101723.81;;;7.43;100.00
16194;BME280;8204;53.582;10.080;2023-02-15T03:36:46;101711.72;;;7.42;100.00
16194;BME280;8204;53.582;10.080;2023-02-15T03:39:22;101699.84;;;7.38;100.00
16194;BME280;8204;53.582;10.080;2023-02-15T03:42:00;101704.97;;;7.39;100.00
16194;BME280;8204;53.582;10.080;2023-02-15T03:44:38;101702.44;;;7.38;100.00
16194;BME280;8204;53.582;10.080;2023-02-15T03:47:13;101692.28;;;7.35;100.00
16194;BME280;8204;53.582;10.080;2023-02-15T03:49:48;101681.13;;;7.33;100.00
16194;BME280;8204;53.582;10.080;2023-02-15T03:52:25;101671.41;;;7.35;100.00
16194;BME280;8204;53.582;10.080;2023-02-15T03:54:54;101668.06;;;7.33;100.00
16194;BME280;8204;53.582;10.080;2023-02-15T03:57:25;101658.47;;;7.33;100.00
16194;BME280;8204;53.582;10.080;2023-02-15T04:00:13;101647.34;;;7.31;100.00
16194;BME280;8204;53.582;10.080;2023-02-15T04:03:08;101661.44;;;7.29;100.00
16194;BME280;8204;53.582;10.080;2023-02-15T04:05:38;101656.22;;;7.29;100.00
16194;BME280;8204;53.582;10.080;2023-02-15T04:08:10;101655.16;;;7.31;100.00
16194;BME280;8204;53.582;10.080;2023-02-15T04:10:40;101652.56;;;7.31;100.00
16194;BME280;8204;53.582;10.080;2023-02-15T04:13:18;101662.88;;;7.33;100.00
16194;BME280;8204;53.582;10.080;2023-02-15T04:15:47;101682.06;;;7.32;100.00
16194;BME280;8204;53.582;10.080;2023-02-15T04:18:29;101685.97;;;7.26;100.00
16194;BME280;8204;53.582;10.080;2023-02-15T04:21:10;101689.00;;;7.21;100.00
16194;BME280;8204;53.582;10.080;2023-02-15T04:23:54;101681.31;;;7.19;100.00
16194;BME280;8204;53.582;10.080;2023-02-15T04:26:36;101689.38;;;7.16;100.00
16194;BME280;8204;53.582;10.080;2023-02-15T04:29:05;101674.44;;;7.18;100.00
16194;BME280;8204;53.582;10.080;2023-02-15T04:31:34;101678.81;;;7.18;100.00
16194;BME280;8204;53.582;10.080;2023-02-15T04:34:03;101677.03;;;7.18;100.00
16194;BME280;8204;53.582;10.080;2023-02-15T04:36:32;101667.81;;;7.14;100.00
16194;BME280;8204;53.582;10.080;2023-02-15T04:39:04;101665.91;;;7.16;100.00
16194;BME280;8204;53.582;10.080;2023-02-15T04:41:34;101651.44;;;7.12;100.00
16194;BME280;8204;53.582;10.080;2023-02-15T04:44:03;101651.44;;;7.12;100.00
16194;BME280;8204;53.582;10.080;2023-02-15T04:46:32;101652.16;;;7.14;100.00
16194;BME280;8204;53.582;10.080;2023-02-15T04:49:01;101674.06;;;7.12;100.00
16194;BME280;8204;53.582;10.080;2023-02-15T04:51:30;101664.72;;;7.09;100.00
16194;BME280;8204;53.582;10.080;2023-02-15T04:53:59;101680.44;;;7.08;100.00
16194;BME280;8204;53.582;10.080;2023-02-15T04:56:30;101678.19;;;7.03;100.00
16194;BME280;8204;53.582;10.080;2023-02-15T04:59:00;101684.34;;;7.02;100.00
16194;BME280;8204;53.582;10.080;2023-02-15T05:01:29;101687.91;;;7.01;100.00
16194;BME280;8204;53.582;10.080;2023-02-15T05:03:58;101682.06;;;6.98;100.00
16194;BME280;8204;53.582;10.080;2023-02-15T05:06:27;101688.34;;;6.95;100.00
16194;BME280;8204;53.582;10.080;2023-02-15T05:08:55;101673.78;;;6.93;100.00
16194;BME280;8204;53.582;10.080;2023-02-15T05:11:25;101685.97;;;6.92;100.00
16194;BME280;8204;53.582;10.080;2023-02-15T05:13:56;101692.22;;;6.90;100.00
16194;BME280;8204;53.582;10.080;2023-02-15T05:16:25;101685.72;;;6.84;100.00
16194;BME280;8204;53.582;10.080;2023-02-15T05:18:54;101686.53;;;6.85;100.00
16194;BME280;8204;53.582;10.080;2023-02-15T05:21:23;101674.44;;;6.84;100.00
16194;BME280;8204;53.582;10.080;2023-02-15T05:23:52;101682.59;;;6.79;100.00
16194;BME280;8204;53.582;10.080;2023-02-15T05:26:22;101703.06;;;6.73;100.00
16194;BME280;8204;53.582;10.080;2023-02-15T05:29:08;101721.59;;;6.68;100.00
16194;BME280;8204;53.582;10.080;2023-02-15T05:31:37;101723.59;;;6.65;100.00
16194;BME280;8204;53.582;10.080;2023-02-15T05:34:06;101722.97;;;6.61;100.00
16194;BME280;8204;53.582;10.080;2023-02-15T05:36:35;101714.69;;;6.56;100.00
16194;BME280;8204;53.582;10.080;2023-02-15T05:39:04;101718.34;;;6.54;100.00
16194;BME280;8204;53.582;10.080;2023-02-15T05:41:34;101726.66;;;6.47;100.00
16194;BME280;8204;53.582;10.080;2023-02-15T05:44:03;101706.69;;;6.47;100.00
16194;BME280;8204;53.582;10.080;2023-02-15T05:46:35;101713.88;;;6.44;100.00
16194;BME280;8204;53.582;10.080;2023-02-15T05:49:03;101701.69;;;6.44;100.00
16194;BME280;8204;53.582;10.080;2023-02-15T05:51:32;101707.00;;;6.43;100.00
16194;BME280;8204;53.582;10.080;2023-02-15T05:54:01;101707.94;;;6.42;100.00
16194;BME280;8204;53.582;10.080;2023-02-15T05:56:30;101709.81;;;6.40;100.00
16194;BME280;8204;53.582;10.080;2023-02-15T05:58:59;101699.41;;;6.40;100.00
16194;BME280;8204;53.582;10.080;2023-02-15T06:01:28;101699.41;;;6.40;100.00
16194;BME280;8204;53.582;10.080;2023-02-15T06:03:59;101716.31;;;6.34;100.00
16194;BME280;8204;53.582;10.080;2023-02-15T06:06:28;101699.16;;;6.32;100.00
16194;BME280;8204;53.582;10.080;2023-02-15T06:08:57;101700.06;;;6.31;100.00
16194;BME280;8204;53.582;10.080;2023-02-15T06:11:26;101680.31;;;6.28;100.00
16194;BME280;8204;53.582;10.080;2023-02-15T06:13:55;101679.47;;;6.28;100.00
16194;BME280;8204;53.582;10.080;2023-02-15T06:16:24;101671.78;;;6.26;100.00
16194;BME280;8204;53.582;10.080;2023-02-15T06:18:52;101676.16;;;6.26;100.00
16194;BME280;8204;53.582;10.080;2023-02-15T06:21:24;101674.38;;;6.26;100.00
16194;BME280;8204;53.582;10.080;2023-02-15T06:23:53;101672.72;;;6.25;100.00
16194;BME280;8204;53.582;10.080;2023-02-15T06:26:22;101674.50;;;6.25;100.00
16194;BME280;8204;53.582;10.080;2023-02-15T06:28:51;101678.84;;;6.24;100.00
16194;BME280;8204;53.582;10.080;2023-02-15T06:31:20;101690.31;;;6.22;100.00
16194;BME280;8204;53.582;10.080;2023-02-15T06:33:48;101682.63;;;6.20;100.00
16194;BME280;8204;53.582;10.080;2023-02-15T06:36:17;101680.13;;;6.19;100.00
16194;BME280;8204;53.582;10.080;2023-02-15T06:38:49;101691.56;;;6.16;100.00
16194;BME280;8204;53.582;10.080;2023-02-15T06:41:17;101698.66;;;6.14;100.00
16194;BME280;8204;53.582;10.080;2023-02-15T06:43:46;101685.53;;;6.16;100.00
16194;BME280;8204;53.582;10.080;2023-02-15T06:46:15;101690.13;;;6.12;100.00
16194;BME280;8204;53.582;10.080;2023-02-15T06:48:45;101681.59;;;6.10;100.00
16194;BME280;8204;53.582;10.080;2023-02-15T06:51:14;101667.63;;;6.11;100.00
16194;BME280;8204;53.582;10.080;2023-02-15T06:53:43;101654.56;;;6.13;100.00
16194;BME280;8204;53.582;10.080;2023-02-15T06:56:14;101672.75;;;6.13;100.00
16194;BME280;8204;53.582;10.080;2023-02-15T06:58:43;101652.75;;;6.13;100.00
16194;BME280;8204;53.582;10.080;2023-02-15T07:01:15;101649.13;;;6.16;100.00
16194;BME280;8204;53.582;10.080;2023-02-15T07:03:44;101669.09;;;6.15;100.00
16194;BME280;8204;53.582;10.080;2023-02-15T07:06:13;101659.31;;;6.19;100.00
16194;BME280;8204;53.582;10.080;2023-02-15T07:08:42;101672.41;;;6.17;100.00
16194;BME280;8204;53.582;10.080;2023-02-15T07:11:10;101670.44;;;6.21;100.00
16194;BME280;8204;53.582;10.080;2023-02-15T07:13:54;101678.47;;;6.18;100.00
16194;BME280;8204;53.582;10.080;2023-02-15T07:16:23;101679.28;;;6.18;100.00
16194;BME280;8204;53.582;10.080;2023-02-15T07:18:52;101681.75;;;6.20;100.00
16194;BME280;8204;53.582;10.080;2023-02-15T07:21:21;101667.94;;;6.19;100.00
16194;BME280;8204;53.582;10.080;2023-02-15T07:23:49;101685.41;;;6.17;100.00
16194;BME280;8204;53.582;10.080;2023-02-15T07:26:18;101692.41;;;6.17;100.00
16194;BME280;8204;53.582;10.080;2023-02-15T07:28:47;101683.97;;;6.13;100.00
16194;BME280;8204;53.582;10.080;2023-02-15T07:31:20;101697.09;;;6.12;100.00
16194;BME280;8204;53.582;10.080;2023-02-15T07:33:50;101675.56;;;6.10;100.00
16194;BME280;8204;53.582;10.080;2023-02-15T07:36:18;101660.78;;;6.10;100.00
16194;BME280;8204;53.582;10.080;2023-02-15T07:38:47;101667.75;;;6.10;100.00
16194;BME280;8204;53.582;10.080;2023-02-15T07:41:16;101667.75;;;6.10;100.00
16194;BME280;8204;53.582;10.080;2023-02-15T07:43:45;101656.41;;;6.11;100.00
16194;BME280;8204;53.582;10.080;2023-02-15T07:46:16;101651.22;;;6.11;100.00
16194;BME280;8204;53.582;10.080;2023-02-15T07:48:49;101647.75;;;6.10;100.00
16194;BME280;8204;53.582;10.080;2023-02-15T07:51:17;101658.09;;;6.12;100.00
16194;BME280;8204;53.582;10.080;2023-02-15T07:53:47;101661.81;;;6.08;100.00
16194;BME280;8204;53.582;10.080;2023-02-15T07:56:17;101672.97;;;6.10;100.00
16194;BME280;8204;53.582;10.080;2023-02-15T07:58:46;101681.81;;;6.07;100.00
16194;BME280;8204;53.582;10.080;2023-02-15T08:01:23;101668.19;;;6.04;100.00
16194;BME280;8204;53.582;10.080;2023-02-15T08:03:55;101659.44;;;6.05;100.00
16194;BME280;8204;53.582;10.080;2023-02-15T08:06:26;101662.06;;;6.05;100.00
16194;BME280;8204;53.582;10.080;2023-02-15T08:08:56;101679.84;;;5.98;100.00
16194;BME280;8204;53.582;10.080;2023-02-15T08:11:27;101658.91;;;6.00;100.00
16194;BME280;8204;53.582;10.080;2023-02-15T08:14:04;101678.28;;;5.96;100.00
16194;BME280;8204;53.582;10.080;2023-02-15T08:16:35;101656.03;;;5.92;100.00
16194;BME280;8204;53.582;10.080;2023-02-15T08:19:09;101631.47;;;5.96;100.00
16194;BME280;8204;53.582;10.080;2023-02-15T08:21:39;101626.28;;;5.96;100.00
16194;BME280;8204;53.582;10.080;2023-02-15T08:24:10;101645.41;;;5.95;100.00
16194;BME280;8204;53.582;10.080;2023-02-15T08:26:39;101671.34;;;5.96;100.00
16194;BME280;8204;53.582;10.080;2023-02-15T08:29:09;101705.78;;;5.87;100.00
16194;BME280;8204;53.582;10.080;2023-02-15T08:31:41;101693.28;;;5.92;100.00
16194;BME280;8204;53.582;10.080;2023-02-15T08:34:16;101689.00;;;5.91;100.00
16194;BME280;8204;53.582;10.080;2023-02-15T08:36:46;101687.25;;;5.92;100.00
16194;BME280;8204;53.582;10.080;2023-02-15T08:39:15;101686.31;;;5.93;100.00
16194;BME280;8204;53.582;10.080;2023-02-15T08:41:45;101694.81;;;5.95;100.00
16194;BME280;8204;53.582;10.080;2023-02-15T08:44:17;101697.66;;;5.92;100.00
16194;BME280;8204;53.582;10.080;2023-02-15T08:46:48;101704.63;;;5.91;100.00
16194;BME280;8204;53.582;10.080;2023-02-15T08:49:21;101717.84;;;5.88;100.00
16194;BME280;8204;53.582;10.080;2023-02-15T08:51:50;101709.19;;;5.88;100.00
16194;BME280;8204;53.582;10.080;2023-02-15T08:54:20;101695.16;;;5.90;100.00
16194;BME280;8204;53.582;10.080;2023-02-15T08:56:49;101695.06;;;5.92;100.00
16194;BME280;8204;53.582;10.080;2023-02-15T08:59:20;101688.94;;;5.93;100.00
16194;BME280;8204;53.582;10.080;2023-02-15T09:01:51;101697.66;;;5.92;100.00
16194;BME280;8204;53.582;10.080;2023-02-15T09:04:22;101693.91;;;5.96;100.00
16194;BME280;8204;53.582;10.080;2023-02-15T09:06:51;101713.97;;;5.94;100.00
16194;BME280;8204;53.582;10.080;2023-02-15T09:09:21;101726.97;;;5.94;100.00
16194;BME280;8204;53.582;10.080;2023-02-15T09:11:51;101753.53;;;5.86;100.00
16194;BME280;8204;53.582;10.080;2023-02-15T09:14:20;101746.53;;;5.87;100.00
16194;BME280;8204;53.582;10.080;2023-02-15T09:16:52;101731.16;;;5.84;100.00
16194;BME280;8204;53.582;10.080;2023-02-15T09:19:24;101727.94;;;5.80;100.00
16194;BME280;8204;53.582;10.080;2023-02-15T09:21:53;101713.38;;;5.78;100.00
16194;BME280;8204;53.582;10.080;2023-02-15T09:24:22;101699.22;;;5.82;100.00
16194;BME280;8204;53.582;10.080;2023-02-15T09:26:51;101696.50;;;5.83;100.00
16194;BME280;8204;53.582;10.080;2023-02-15T09:29:19;101670.41;;;5.85;100.00
16194;BME280;8204;53.582;10.080;2023-02-15T09:31:50;101664.78;;;5.91;100.00
16194;BME280;8204;53.582;10.080;2023-02-15T09:34:23;101674.44;;;5.89;100.00
16194;BME280;8204;53.582;10.080;2023-02-15T09:36:52;101660.41;;;5.91;100.00
16194;BME280;8204;53.582;10.080;2023-02-15T09:39:22;101652.41;;;5.94;100.00
16194;BME280;8204;53.582;10.080;2023-02-15T09:44:57;101663.31;;;5.99;100.00
16194;BME280;8204;53.582;10.080;2023-02-15T09:47:43;101658.84;;;6.01;100.00
16194;BME280;8204;53.582;10.080;2023-02-15T09:50:25;101643.72;;;6.06;100.00
16194;BME280;8204;53.582;10.080;2023-02-15T09:53:14;101652.47;;;6.05;100.00
16194;BME280;8204;53.582;10.080;2023-02-15T09:55:56;101624.16;;;6.13;100.00
16194;BME280;8204;53.582;10.080;2023-02-15T09:58:36;101628.78;;;6.21;100.00
16194;BME280;8204;53.582;10.080;2023-02-15T10:01:11;101646.91;;;6.22;100.00
16194;BME280;8204;53.582;10.080;2023-02-15T10:03:56;101640.44;;;6.28;100.00
16194;BME280;8204;53.582;10.080;2023-02-15T10:06:36;101681.38;;;6.26;100.00
16194;BME280;8204;53.582;10.080;2023-02-15T10:09:17;101674.50;;;6.25;100.00
16194;BME280;8204;53.582;10.080;2023-02-15T10:12:03;101679.34;;;6.29;100.00
16194;BME280;8204;53.582;10.080;2023-02-15T10:14:51;101672.75;;;6.36;100.00
16194;BME280;8204;53.582;10.080;2023-02-15T10:17:35;101693.59;;;6.36;100.00
16194;BME280;8204;53.582;10.080;2023-02-15T10:20:21;101712.97;;;6.32;100.00
16194;BME280;8204;53.582;10.080;2023-02-15T10:23:09;101726.31;;;6.28;100.00
16194;BME280;8204;53.582;10.080;2023-02-15T10:25:46;101696.25;;;6.24;100.00
16194;BME280;8204;53.582;10.080;2023-02-15T10:28:25;101675.94;;;6.29;100.00
16194;BME280;8204;53.582;10.080;2023-02-15T10:31:00;101683.63;;;6.30;100.00
16194;BME280;8204;53.582;10.080;2023-02-15T10:33:38;101694.13;;;6.29;100.00
16194;BME280;8204;53.582;10.080;2023-02-15T10:36:18;101685.28;;;6.31;100.00
16194;BME280;8204;53.582;10.080;2023-02-15T10:39:00;101683.41;;;6.33;100.00
16194;BME280;8204;53.582;10.080;2023-02-15T10:41:37;101679.63;;;6.37;100.00
16194;BME280;8204;53.582;10.080;2023-02-15T10:44:32;101679.56;;;6.39;100.00
16194;BME280;8204;53.582;10.080;2023-02-15T10:47:17;101693.50;;;6.38;100.00
16194;BME280;8204;53.582;10.080;2023-02-15T10:50:02;101683.34;;;6.46;100.00
16194;BME280;8204;53.582;10.080;2023-02-15T10:52:41;101684.31;;;6.45;100.00
16194;BME280;8204;53.582;10.080;2023-02-15T10:55:25;101688.78;;;6.43;100.00
16194;BME280;8204;53.582;10.080;2023-02-15T10:58:05;101673.66;;;6.48;100.00
16194;BME280;8204;53.582;10.080;2023-02-15T11:00:41;101671.91;;;6.48;100.00
16194;BME280;8204;53.582;10.080;2023-02-15T11:03:26;101686.69;;;6.48;100.00
16194;BME280;8204;53.582;10.080;2023-02-15T11:06:03;101661.16;;;6.52;100.00
16194;BME280;8204;53.582;10.080;2023-02-15T11:08:39;101670.63;;;6.53;100.00
16194;BME280;8204;53.582;10.080;2023-02-15T11:11:16;101651.94;;;6.59;100.00
16194;BME280;8204;53.582;10.080;2023-02-15T11:13:51;101645.97;;;6.70;100.00
16194;BME280;8204;53.582;10.080;2023-02-15T11:16:26;101656.50;;;6.68;100.00
16194;BME280;8204;53.582;10.080;2023-02-15T11:19:00;101631.44;;;6.78;100.00
16194;BME280;8204;53.582;10.080;2023-02-15T11:21:34;101631.94;;;6.83;100.00
16194;BME280;8204;53.582;10.080;2023-02-15T11:24:10;101629.94;;;6.87;100.00
16194;BME280;8204;53.582;10.080;2023-02-15T11:26:43;101636.47;;;6.92;100.00
16194;BME280;8204;53.582;10.080;2023-02-15T11:29:20;101645.47;;;6.99;100.00
16194;BME280;8204;53.582;10.080;2023-02-15T11:31:55;101637.31;;;7.04;100.00
16194;BME280;8204;53.582;10.080;2023-02-15T11:34:29;101660.56;;;7.07;100.00
16194;BME280;8204;53.582;10.080;2023-02-15T11:37:05;101669.69;;;7.12;100.00
16194;BME280;8204;53.582;10.080;2023-02-15T11:39:36;101691.84;;;7.07;100.00
16194;BME280;8204;53.582;10.080;2023-02-15T11:42:12;101694.31;;;7.08;100.00
16194;BME280;8204;53.582;10.080;2023-02-15T11:44:52;101685.66;;;7.08;100.00
16194;BME280;8204;53.582;10.080;2023-02-15T11:47:24;101659.25;;;7.12;100.00
16194;BME280;8204;53.582;10.080;2023-02-15T11:49:53;101663.66;;;7.12;100.00
16194;BME280;8204;53.582;10.080;2023-02-15T11:52:22;101628.03;;;7.23;100.00
16194;BME280;8204;53.582;10.080;2023-02-15T11:54:51;101624.09;;;7.28;100.00
16194;BME280;8204;53.582;10.080;2023-02-15T11:57:28;101626.63;;;7.30;100.00
16194;BME280;8204;53.582;10.080;2023-02-15T12:00:09;101626.84;;;7.38;100.00
16194;BME280;8204;53.582;10.080;2023-02-15T12:02:42;101648.66;;;7.37;100.00
16194;BME280;8204;53.582;10.080;2023-02-15T12:05:16;101658.38;;;7.35;100.00
16194;BME280;8204;53.582;10.080;2023-02-15T12:07:52;101639.88;;;7.38;100.00
16194;BME280;8204;53.582;10.080;2023-02-15T12:10:25;101649.84;;;7.44;100.00
16194;BME280;8204;53.582;10.080;2023-02-15T12:13:12;101654.38;;;7.53;100.00
16194;BME280;8204;53.582;10.080;2023-02-15T12:15:42;101658.03;;;7.61;100.00
16194;BME280;8204;53.582;10.080;2023-02-15T12:18:25;101646.06;;;7.70;100.00
16194;BME280;8204;53.582;10.080;2023-02-15T12:21:05;101646.91;;;7.81;100.00
16194;BME280;8204;53.582;10.080;2023-02-15T12:23:42;101628.75;;;7.91;100.00
16194;BME280;8204;53.582;10.080;2023-02-15T12:26:12;101650.00;;;7.97;100.00
16194;BME280;8204;53.582;10.080;2023-02-15T12:28:44;101656.63;;;8.01;100.00
16194;BME280;8204;53.582;10.080;2023-02-15T12:31:22;101664.09;;;8.05;100.00
16194;BME280;8204;53.582;10.080;2023-02-15T12:33:55;101659.34;;;8.10;100.00
16194;BME280;8204;53.582;10.080;2023-02-15T12:36:29;101709.41;;;8.04;100.00
16194;BME280;8204;53.582;10.080;2023-02-15T12:39:05;101715.56;;;8.03;100.00
16194;BME280;8204;53.582;10.080;2023-02-15T12:41:45;101691.16;;;8.15;100.00
